createdAt,value
2022-09-12T00:00:16.532Z,16.84
2022-09-12T00:01:16.626Z,16.87
2022-09-12T00:02:16.557Z,16.84
2022-09-12T00:03:16.489Z,16.84
2022-09-12T00:04:16.503Z,16.80
2022-09-12T00:05:16.463Z,16.82
2022-09-12T00:06:20.509Z,16.79
2022-09-12T00:07:17.460Z,16.80
2022-09-12T00:08:16.440Z,16.79
2022-09-12T00:09:16.432Z,16.74
2022-09-12T00:10:16.407Z,16.76
2022-09-12T00:11:16.407Z,16.74
2022-09-12T00:12:16.396Z,16.70
2022-09-12T00:13:16.385Z,16.69
2022-09-12T00:14:16.371Z,16.70
2022-09-12T00:15:16.354Z,16.73
2022-09-12T00:16:16.425Z,16.65
2022-09-12T00:17:16.333Z,16.76
2022-09-12T00:18:16.319Z,16.61
2022-09-12T00:19:16.317Z,16.65
2022-09-12T00:20:16.324Z,16.62
2022-09-12T00:21:16.311Z,16.61
2022-09-12T00:22:16.277Z,16.65
2022-09-12T00:23:16.269Z,16.64
2022-09-12T00:24:16.259Z,16.65
2022-09-12T00:25:16.251Z,16.65
2022-09-12T00:26:16.248Z,16.72
2022-09-12T00:27:16.227Z,16.57
2022-09-12T00:28:16.213Z,16.57
2022-09-12T00:29:16.213Z,16.58
2022-09-12T00:30:16.191Z,16.61
2022-09-12T00:31:16.307Z,16.52
2022-09-12T00:32:16.171Z,16.57
2022-09-12T00:33:16.158Z,16.51
2022-09-12T00:34:16.153Z,16.44
2022-09-12T00:35:16.136Z,16.42
2022-09-12T00:36:16.165Z,16.46
2022-09-12T00:37:16.114Z,16.42
2022-09-12T00:38:16.104Z,16.47
2022-09-12T00:39:16.097Z,16.43
2022-09-12T00:40:16.170Z,16.39
2022-09-12T00:41:16.086Z,16.39
2022-09-12T00:42:16.104Z,16.40
2022-09-12T00:43:16.053Z,16.34
2022-09-12T00:44:16.051Z,16.25
2022-09-12T00:45:16.047Z,16.25
2022-09-12T00:46:16.033Z,16.24
2022-09-12T00:47:16.025Z,16.29
2022-09-12T00:48:15.999Z,16.32
2022-09-12T00:49:15.989Z,16.36
2022-09-12T00:50:15.994Z,16.28
2022-09-12T00:51:16.005Z,16.28
2022-09-12T00:52:15.974Z,16.18
2022-09-12T00:53:15.947Z,16.25
2022-09-12T00:54:15.934Z,16.22
2022-09-12T00:55:15.912Z,16.21
2022-09-12T00:56:15.934Z,16.16
2022-09-12T00:57:15.931Z,16.21
2022-09-12T00:58:15.901Z,16.17
2022-09-12T00:59:15.873Z,16.10
2022-09-12T01:00:15.875Z,16.09
2022-09-12T01:01:15.980Z,16.13
2022-09-12T01:02:15.959Z,16.14
2022-09-12T01:03:15.827Z,16.13
2022-09-12T01:04:15.831Z,16.09
2022-09-12T01:05:15.815Z,16.03
2022-09-12T01:06:15.830Z,15.99
2022-09-12T01:07:15.793Z,16.02
2022-09-12T01:08:15.797Z,16.08
2022-09-12T01:09:15.769Z,16.00
2022-09-12T01:10:15.754Z,16.03
2022-09-12T01:11:15.788Z,16.05
2022-09-12T01:12:15.746Z,16.02
2022-09-12T01:13:15.727Z,16.00
2022-09-12T01:14:15.720Z,16.08
2022-09-12T01:15:15.695Z,15.98
2022-09-12T01:16:15.815Z,15.90
2022-09-12T01:17:15.678Z,15.99
2022-09-12T01:18:15.672Z,15.98
2022-09-12T01:19:15.656Z,15.87
2022-09-12T01:20:15.642Z,15.95
2022-09-12T01:21:19.609Z,15.91
2022-09-12T01:22:15.624Z,15.91
2022-09-12T01:23:15.615Z,15.85
2022-09-12T01:24:15.619Z,15.81
2022-09-12T01:25:15.589Z,15.91
2022-09-12T01:26:15.593Z,15.88
2022-09-12T01:27:15.573Z,15.85
2022-09-12T01:28:15.551Z,15.80
2022-09-12T01:29:15.539Z,15.81
2022-09-12T01:30:15.544Z,15.77
2022-09-12T01:31:15.551Z,15.80
2022-09-12T01:32:15.558Z,15.78
2022-09-12T01:33:15.509Z,15.72
2022-09-12T01:34:15.513Z,15.78
2022-09-12T01:35:15.477Z,15.80
2022-09-12T01:36:15.495Z,15.73
2022-09-12T01:37:15.464Z,15.76
2022-09-12T01:38:15.451Z,15.69
2022-09-12T01:39:15.435Z,15.69
2022-09-12T01:40:15.487Z,15.73
2022-09-12T01:41:15.427Z,15.73
2022-09-12T01:42:15.418Z,15.63
2022-09-12T01:43:15.395Z,15.66
2022-09-12T01:44:15.378Z,15.62
2022-09-12T01:45:15.374Z,15.68
2022-09-12T01:46:15.381Z,15.65
2022-09-12T01:47:15.343Z,15.56
2022-09-12T01:48:15.335Z,15.62
2022-09-12T01:49:15.332Z,15.58
2022-09-12T01:50:15.315Z,15.59
2022-09-12T01:51:15.320Z,15.54
2022-09-12T01:52:15.303Z,15.54
2022-09-12T01:53:15.281Z,15.56
2022-09-12T01:54:15.269Z,15.58
2022-09-12T01:55:15.256Z,15.58
2022-09-12T01:56:15.332Z,15.48
2022-09-12T01:57:15.241Z,15.52
2022-09-12T01:58:15.220Z,15.43
2022-09-12T01:59:15.221Z,15.52
2022-09-12T02:00:15.205Z,15.56
2022-09-12T02:01:15.359Z,15.50
2022-09-12T02:02:15.257Z,15.51
2022-09-12T02:03:15.170Z,15.51
2022-09-12T02:04:15.162Z,15.45
2022-09-12T02:05:15.148Z,15.47
2022-09-12T02:06:15.154Z,15.41
2022-09-12T02:07:15.124Z,15.47
2022-09-12T02:08:15.116Z,15.38
2022-09-12T02:09:15.104Z,15.44
2022-09-12T02:10:15.087Z,15.41
2022-09-12T02:11:15.131Z,15.41
2022-09-12T02:12:15.097Z,15.51
2022-09-12T02:13:15.061Z,15.44
2022-09-12T02:14:15.050Z,15.38
2022-09-12T02:15:15.045Z,15.41
2022-09-12T02:16:15.059Z,15.32
2022-09-12T02:17:15.025Z,15.35
2022-09-12T02:18:15.002Z,15.36
2022-09-12T02:19:14.996Z,15.27
2022-09-12T02:20:31.028Z,15.35
2022-09-12T02:21:15.981Z,15.26
2022-09-12T02:22:14.969Z,15.29
2022-09-12T02:23:14.947Z,15.32
2022-09-12T02:24:14.941Z,15.23
2022-09-12T02:25:14.929Z,15.20
2022-09-12T02:26:14.930Z,15.26
2022-09-12T02:27:14.897Z,15.23
2022-09-12T02:28:14.917Z,15.29
2022-09-12T02:29:14.882Z,15.20
2022-09-12T02:30:14.893Z,15.27
2022-09-12T02:31:14.890Z,15.17
2022-09-12T02:32:14.851Z,15.19
2022-09-12T02:33:14.852Z,15.22
2022-09-12T02:34:14.831Z,15.22
2022-09-12T02:35:14.814Z,15.22
2022-09-12T02:36:14.828Z,15.17
2022-09-12T02:37:14.789Z,15.12
2022-09-12T02:38:14.792Z,15.12
2022-09-12T02:39:14.780Z,15.12
2022-09-12T02:40:14.813Z,15.10
2022-09-12T02:41:14.767Z,15.19
2022-09-12T02:42:14.737Z,15.20
2022-09-12T02:43:14.741Z,15.11
2022-09-12T02:44:14.739Z,15.20
2022-09-12T02:45:14.720Z,15.07
2022-09-12T02:46:14.712Z,15.08
2022-09-12T02:47:14.682Z,15.05
2022-09-12T02:48:14.677Z,15.08
2022-09-12T02:49:14.665Z,15.08
2022-09-12T02:50:14.654Z,15.07
2022-09-12T02:51:14.656Z,15.05
2022-09-12T02:52:14.629Z,15.08
2022-09-12T02:53:14.635Z,15.05
2022-09-12T02:54:14.610Z,14.99
2022-09-12T02:55:14.609Z,15.08
2022-09-12T02:56:14.600Z,15.10
2022-09-12T02:57:14.580Z,15.10
2022-09-12T02:58:14.563Z,15.04
2022-09-12T02:59:14.558Z,15.07
2022-09-12T03:00:14.566Z,15.04
2022-09-12T03:01:14.642Z,15.04
2022-09-12T03:02:14.552Z,14.92
2022-09-12T03:03:14.509Z,14.92
2022-09-12T03:04:14.498Z,14.96
2022-09-12T03:05:14.495Z,14.90
2022-09-12T03:06:14.491Z,14.93
2022-09-12T03:07:14.466Z,14.99
2022-09-12T03:08:14.460Z,14.93
2022-09-12T03:09:14.441Z,14.90
2022-09-12T03:10:14.447Z,14.90
2022-09-12T03:11:14.462Z,14.89
2022-09-12T03:12:14.414Z,14.78
2022-09-12T03:13:14.406Z,14.90
2022-09-12T03:14:14.408Z,14.90
2022-09-12T03:15:14.387Z,14.90
2022-09-12T03:16:14.417Z,14.85
2022-09-12T03:17:14.365Z,14.78
2022-09-12T03:18:14.357Z,14.79
2022-09-12T03:19:14.343Z,14.82
2022-09-12T03:20:14.323Z,14.79
2022-09-12T03:21:14.332Z,14.85
2022-09-12T03:22:14.332Z,14.83
2022-09-12T03:23:14.323Z,14.77
2022-09-12T03:24:14.292Z,14.73
2022-09-12T03:25:14.269Z,14.69
2022-09-12T03:26:14.277Z,14.78
2022-09-12T03:27:14.261Z,14.73
2022-09-12T03:28:14.246Z,14.70
2022-09-12T03:29:14.251Z,14.71
2022-09-12T03:30:14.251Z,14.59
2022-09-12T03:31:14.241Z,14.63
2022-09-12T03:32:14.213Z,14.66
2022-09-12T03:33:14.191Z,14.61
2022-09-12T03:34:14.176Z,14.70
2022-09-12T03:35:14.165Z,14.66
2022-09-12T03:36:14.163Z,14.67
2022-09-12T03:37:14.150Z,14.61
2022-09-12T03:38:14.133Z,14.63
2022-09-12T03:39:14.137Z,14.59
2022-09-12T03:40:14.125Z,14.59
2022-09-12T03:41:14.135Z,14.63
2022-09-12T03:42:14.098Z,14.55
2022-09-12T03:43:14.081Z,14.58
2022-09-12T03:44:14.076Z,14.58
2022-09-12T03:45:14.074Z,14.58
2022-09-12T03:46:14.098Z,14.64
2022-09-12T03:47:14.063Z,14.53
2022-09-12T03:48:14.040Z,14.55
2022-09-12T03:49:14.024Z,14.55
2022-09-12T03:50:13.998Z,14.51
2022-09-12T03:51:14.002Z,14.51
2022-09-12T03:52:13.978Z,14.56
2022-09-12T03:53:17.085Z,14.52
2022-09-12T03:54:13.978Z,14.48
2022-09-12T03:55:13.952Z,14.53
2022-09-12T03:56:13.955Z,14.49
2022-09-12T03:57:13.915Z,14.41
2022-09-12T03:58:13.916Z,14.38
2022-09-12T03:59:13.919Z,14.38
2022-09-12T04:00:19.041Z,14.37
2022-09-12T04:01:15.010Z,14.45
2022-09-12T04:02:13.894Z,14.33
2022-09-12T04:03:13.849Z,14.44
2022-09-12T04:04:13.874Z,14.41
2022-09-12T04:05:13.841Z,14.36
2022-09-12T04:06:13.838Z,14.40
2022-09-12T04:07:13.821Z,14.38
2022-09-12T04:08:13.799Z,14.36
2022-09-12T04:09:13.797Z,14.38
2022-09-12T04:10:16.182Z,14.36
2022-09-12T04:11:13.779Z,14.36
2022-09-12T04:12:13.759Z,14.33
2022-09-12T04:13:13.742Z,14.37
2022-09-12T04:14:13.755Z,14.34
2022-09-12T04:15:13.719Z,14.34
2022-09-12T04:16:13.762Z,14.33
2022-09-12T04:17:13.700Z,14.30
2022-09-12T04:18:13.685Z,14.33
2022-09-12T04:19:13.681Z,14.26
2022-09-12T04:20:13.684Z,14.26
2022-09-12T04:21:13.715Z,14.31
2022-09-12T04:22:13.649Z,14.31
2022-09-12T04:23:13.629Z,14.31
2022-09-12T04:24:13.625Z,14.34
2022-09-12T04:25:13.608Z,14.23
2022-09-12T04:26:13.623Z,14.26
2022-09-12T04:27:13.584Z,14.28
2022-09-12T04:28:13.582Z,14.22
2022-09-12T04:29:13.571Z,14.19
2022-09-12T04:30:13.549Z,14.21
2022-09-12T04:31:13.560Z,14.15
2022-09-12T04:32:13.573Z,14.18
2022-09-12T04:33:13.533Z,14.22
2022-09-12T04:34:13.510Z,14.16
2022-09-12T04:35:13.500Z,14.19
2022-09-12T04:36:13.525Z,14.19
2022-09-12T04:37:13.480Z,14.22
2022-09-12T04:38:13.487Z,14.18
2022-09-12T04:39:13.470Z,14.11
2022-09-12T04:40:13.502Z,14.15
2022-09-12T04:41:13.444Z,14.03
2022-09-12T04:42:13.436Z,14.13
2022-09-12T04:43:14.664Z,14.16
2022-09-12T04:44:13.416Z,14.05
2022-09-12T04:45:13.404Z,14.08
2022-09-12T04:46:13.443Z,14.08
2022-09-12T04:47:13.380Z,13.98
2022-09-12T04:48:13.362Z,14.08
2022-09-12T04:49:13.338Z,14.01
2022-09-12T04:50:13.340Z,14.01
2022-09-12T04:51:13.342Z,14.04
2022-09-12T04:52:13.331Z,14.05
2022-09-12T04:53:13.297Z,14.01
2022-09-12T04:54:13.284Z,14.11
2022-09-12T04:55:13.272Z,14.05
2022-09-12T04:56:13.291Z,14.04
2022-09-12T04:57:13.252Z,14.05
2022-09-12T04:58:13.241Z,14.08
2022-09-12T04:59:13.229Z,14.08
2022-09-12T05:00:13.224Z,14.04
2022-09-12T05:01:13.273Z,13.98
2022-09-12T05:02:13.276Z,14.05
2022-09-12T05:03:13.191Z,14.00
2022-09-12T05:04:13.181Z,14.03
2022-09-12T05:05:13.159Z,14.01
2022-09-12T05:06:13.161Z,13.97
2022-09-12T05:07:13.150Z,14.03
2022-09-12T05:08:13.150Z,14.01
2022-09-12T05:09:13.122Z,14.01
2022-09-12T05:10:13.111Z,13.96
2022-09-12T05:11:13.122Z,13.91
2022-09-12T05:12:13.095Z,14.00
2022-09-12T05:13:13.078Z,14.00
2022-09-12T05:14:13.059Z,14.00
2022-09-12T05:15:13.061Z,13.93
2022-09-12T05:16:13.093Z,13.88
2022-09-12T05:17:13.033Z,13.88
2022-09-12T05:18:13.021Z,13.82
2022-09-12T05:19:13.015Z,13.93
2022-09-12T05:20:13.000Z,13.83
2022-09-12T05:21:13.015Z,13.86
2022-09-12T05:22:12.972Z,13.90
2022-09-12T05:23:12.973Z,13.93
2022-09-12T05:24:12.973Z,13.97
2022-09-12T05:25:12.944Z,13.93
2022-09-12T05:26:12.956Z,13.86
2022-09-12T05:27:12.918Z,13.85
2022-09-12T05:28:12.909Z,13.86
2022-09-12T05:29:12.906Z,13.90
2022-09-12T05:30:12.893Z,13.91
2022-09-12T05:31:12.888Z,13.96
2022-09-12T05:32:12.864Z,13.93
2022-09-12T05:33:12.855Z,13.88
2022-09-12T05:34:12.844Z,13.86
2022-09-12T05:35:12.846Z,13.90
2022-09-12T05:36:12.854Z,13.90
2022-09-12T05:37:12.809Z,13.93
2022-09-12T05:38:12.816Z,13.85
2022-09-12T05:39:12.795Z,13.86
2022-09-12T05:40:12.843Z,13.93
2022-09-12T05:41:17.502Z,13.86
2022-09-12T05:42:13.755Z,13.83
2022-09-12T05:43:12.743Z,13.86
2022-09-12T05:44:12.737Z,13.88
2022-09-12T05:45:12.734Z,13.93
2022-09-12T05:46:12.767Z,13.93
2022-09-12T05:47:12.699Z,13.90
2022-09-12T05:48:12.689Z,13.94
2022-09-12T05:49:12.688Z,13.90
2022-09-12T05:50:12.663Z,13.93
2022-09-12T05:51:12.666Z,13.90
2022-09-12T05:52:12.648Z,13.86
2022-09-12T05:53:12.630Z,13.94
2022-09-12T05:54:12.632Z,13.86
2022-09-12T05:55:12.627Z,13.88
2022-09-12T05:56:12.633Z,13.88
2022-09-12T05:57:12.588Z,13.90
2022-09-12T05:58:12.572Z,13.90
2022-09-12T05:59:12.598Z,13.90
2022-09-12T06:00:12.553Z,13.86
2022-09-12T06:01:12.602Z,13.88
2022-09-12T06:02:12.599Z,13.93
2022-09-12T06:03:12.526Z,13.83
2022-09-12T06:04:12.509Z,13.90
2022-09-12T06:05:12.503Z,13.91
2022-09-12T06:06:12.498Z,14.01
2022-09-12T06:07:12.497Z,14.00
2022-09-12T06:08:12.462Z,13.98
2022-09-12T06:09:12.458Z,14.04
2022-09-12T06:10:12.448Z,14.01
2022-09-12T06:11:12.441Z,13.98
2022-09-12T06:12:12.446Z,14.01
2022-09-12T06:13:12.411Z,14.00
2022-09-12T06:14:12.692Z,13.97
2022-09-12T06:15:12.393Z,14.03
2022-09-12T06:16:12.517Z,13.98
2022-09-12T06:17:12.384Z,14.01
2022-09-12T06:18:12.411Z,14.04
2022-09-12T06:19:12.351Z,14.05
2022-09-12T06:20:12.330Z,14.01
2022-09-12T06:21:12.331Z,14.03
2022-09-12T06:22:12.329Z,14.08
2022-09-12T06:23:12.304Z,14.05
2022-09-12T06:24:12.296Z,14.08
2022-09-12T06:25:12.278Z,14.09
2022-09-12T06:26:12.272Z,14.12
2022-09-12T06:27:12.252Z,14.16
2022-09-12T06:28:12.260Z,14.21
2022-09-12T06:29:12.234Z,14.22
2022-09-12T06:30:12.223Z,14.19
2022-09-12T06:31:12.302Z,14.23
2022-09-12T06:32:12.198Z,14.23
2022-09-12T06:33:12.194Z,14.28
2022-09-12T06:34:12.191Z,14.26
2022-09-12T06:35:12.170Z,14.23
2022-09-12T06:36:12.670Z,14.33
2022-09-12T06:37:12.145Z,14.34
2022-09-12T06:38:12.138Z,14.33
2022-09-12T06:39:12.123Z,14.28
2022-09-12T06:40:12.154Z,14.33
2022-09-12T06:41:12.123Z,14.44
2022-09-12T06:42:12.112Z,14.38
2022-09-12T06:43:12.071Z,14.37
2022-09-12T06:44:12.085Z,14.36
2022-09-12T06:45:12.068Z,14.40
2022-09-12T06:46:12.135Z,14.40
2022-09-12T06:47:12.033Z,14.38
2022-09-12T06:48:12.022Z,14.45
2022-09-12T06:49:12.018Z,14.55
2022-09-12T06:50:12.007Z,14.51
2022-09-12T06:51:12.003Z,14.46
2022-09-12T06:52:11.987Z,14.59
2022-09-12T06:53:11.972Z,14.55
2022-09-12T06:54:11.961Z,14.58
2022-09-12T06:55:14.257Z,14.66
2022-09-12T06:56:12.943Z,14.56
2022-09-12T06:57:11.919Z,14.55
2022-09-12T06:58:11.918Z,14.61
2022-09-12T06:59:11.910Z,14.59
2022-09-12T07:00:11.916Z,14.70
2022-09-12T07:01:11.939Z,14.64
2022-09-12T07:02:11.899Z,14.66
2022-09-12T07:03:11.856Z,14.77
2022-09-12T07:04:11.875Z,14.77
2022-09-12T07:05:11.837Z,14.64
2022-09-12T07:06:11.849Z,14.78
2022-09-12T07:07:11.815Z,14.83
2022-09-12T07:08:11.796Z,14.89
2022-09-12T07:09:11.792Z,14.83
2022-09-12T07:10:11.786Z,14.87
2022-09-12T07:11:11.787Z,14.92
2022-09-12T07:12:11.758Z,14.93
2022-09-12T07:13:11.748Z,14.99
2022-09-12T07:14:11.743Z,15.03
2022-09-12T07:15:11.730Z,15.07
2022-09-12T07:16:15.972Z,15.07
2022-09-12T07:17:12.764Z,15.05
2022-09-12T07:18:11.694Z,15.11
2022-09-12T07:19:11.689Z,15.07
2022-09-12T07:20:11.735Z,15.10
2022-09-12T07:21:11.670Z,15.15
2022-09-12T07:22:11.654Z,15.12
2022-09-12T07:23:11.638Z,15.15
2022-09-12T07:24:11.803Z,15.20
2022-09-12T07:25:11.616Z,15.14
2022-09-12T07:26:11.623Z,15.17
2022-09-12T07:27:11.596Z,15.27
2022-09-12T07:28:11.588Z,15.27
2022-09-12T07:29:38.801Z,15.36
2022-09-12T07:30:12.577Z,15.22
2022-09-12T07:31:11.670Z,15.38
2022-09-12T07:32:11.572Z,15.33
2022-09-12T07:33:11.545Z,15.50
2022-09-12T07:34:11.521Z,15.45
2022-09-12T07:35:11.510Z,15.50
2022-09-12T07:36:11.515Z,15.43
2022-09-12T07:37:11.497Z,15.54
2022-09-12T07:38:11.498Z,15.51
2022-09-12T07:39:11.484Z,15.51
2022-09-12T07:40:11.591Z,15.58
2022-09-12T07:41:11.452Z,15.59
2022-09-12T07:42:11.846Z,15.54
2022-09-12T07:43:11.419Z,15.60
2022-09-12T07:44:11.405Z,15.69
2022-09-12T07:45:11.398Z,15.73
2022-09-12T07:46:11.473Z,15.68
2022-09-12T07:47:11.414Z,15.73
2022-09-12T07:48:11.402Z,15.77
2022-09-12T07:49:11.355Z,15.78
2022-09-12T07:50:11.351Z,15.78
2022-09-12T07:51:11.355Z,15.85
2022-09-12T07:52:11.320Z,15.88
2022-09-12T07:53:11.311Z,15.87
2022-09-12T07:54:11.303Z,15.84
2022-09-12T07:55:11.295Z,15.95
2022-09-12T07:56:11.286Z,16.02
2022-09-12T07:57:11.269Z,16.03
2022-09-12T07:58:11.258Z,16.02
2022-09-12T07:59:11.248Z,16.06
2022-09-12T08:00:11.239Z,16.13
2022-09-12T08:01:11.352Z,16.18
2022-09-12T08:02:16.063Z,16.09
2022-09-12T08:03:12.202Z,16.22
2022-09-12T08:04:11.205Z,16.26
2022-09-12T08:05:11.177Z,16.22
2022-09-12T08:06:11.201Z,16.26
2022-09-12T08:07:11.152Z,16.33
2022-09-12T08:08:11.140Z,16.32
2022-09-12T08:09:11.148Z,16.34
2022-09-12T08:10:11.123Z,16.32
2022-09-12T08:11:11.124Z,16.40
2022-09-12T08:12:11.093Z,16.40
2022-09-12T08:13:11.093Z,16.47
2022-09-12T08:14:11.078Z,16.55
2022-09-12T08:15:11.076Z,16.52
2022-09-12T08:16:11.159Z,16.55
2022-09-12T08:17:11.044Z,16.64
2022-09-12T08:18:11.036Z,16.55
2022-09-12T08:19:11.023Z,16.62
2022-09-12T08:20:11.035Z,16.69
2022-09-12T08:21:11.027Z,16.62
2022-09-12T08:22:10.994Z,16.64
2022-09-12T08:23:10.993Z,16.67
2022-09-12T08:24:10.964Z,16.65
2022-09-12T08:25:10.974Z,16.70
2022-09-12T08:26:10.976Z,16.76
2022-09-12T08:27:10.955Z,16.79
2022-09-12T08:28:10.933Z,16.80
2022-09-12T08:29:10.926Z,16.87
2022-09-12T08:30:10.901Z,16.83
2022-09-12T08:31:10.982Z,16.90
2022-09-12T08:32:10.887Z,16.91
2022-09-12T08:33:10.884Z,16.99
2022-09-12T08:34:10.861Z,16.97
2022-09-12T08:35:10.853Z,17.10
2022-09-12T08:36:10.909Z,17.09
2022-09-12T08:37:10.827Z,17.16
2022-09-12T08:38:10.809Z,17.14
2022-09-12T08:39:10.817Z,17.09
2022-09-12T08:40:10.828Z,17.12
2022-09-12T08:41:10.796Z,17.12
2022-09-12T08:43:10.761Z,17.22
2022-09-12T08:44:10.751Z,17.25
2022-09-12T08:45:10.746Z,17.31
2022-09-12T08:46:10.807Z,17.35
2022-09-12T08:47:10.720Z,17.38
2022-09-12T08:48:10.701Z,17.37
2022-09-12T08:49:10.696Z,17.45
2022-09-12T08:50:10.682Z,17.39
2022-09-12T08:51:10.681Z,17.41
2022-09-12T08:52:10.695Z,17.46
2022-09-12T08:53:10.663Z,17.46
2022-09-12T08:54:10.667Z,17.49
2022-09-12T08:55:10.629Z,17.49
2022-09-12T08:56:10.633Z,17.53
2022-09-12T08:57:10.608Z,17.66
2022-09-12T08:58:10.597Z,17.66
2022-09-12T08:59:10.597Z,17.65
2022-09-12T09:00:10.568Z,17.65
2022-09-12T09:01:10.661Z,17.73
2022-09-12T09:02:10.585Z,17.75
2022-09-12T09:03:10.544Z,17.76
2022-09-12T09:04:10.525Z,17.93
2022-09-12T09:05:10.527Z,17.91
2022-09-12T09:06:10.532Z,17.88
2022-09-12T09:07:10.515Z,17.90
2022-09-12T09:08:10.505Z,17.87
2022-09-12T09:09:10.472Z,17.97
2022-09-12T09:10:10.463Z,17.99
2022-09-12T09:11:10.483Z,18.02
2022-09-12T09:12:10.428Z,18.11
2022-09-12T09:13:10.427Z,18.02
2022-09-12T09:14:10.413Z,18.17
2022-09-12T09:15:10.422Z,18.13
2022-09-12T09:16:10.461Z,18.20
2022-09-12T09:17:10.383Z,18.18
2022-09-12T09:18:10.371Z,18.21
2022-09-12T09:19:10.363Z,18.30
2022-09-12T09:20:10.352Z,18.26
2022-09-12T09:21:10.348Z,18.27
2022-09-12T09:22:10.345Z,18.31
2022-09-12T09:23:10.315Z,18.30
2022-09-12T09:24:10.321Z,18.36
2022-09-12T09:25:10.296Z,18.28
2022-09-12T09:26:10.300Z,18.28
2022-09-12T09:27:29.797Z,18.36
2022-09-12T09:28:11.276Z,18.39
2022-09-12T09:29:10.254Z,18.41
2022-09-12T09:30:10.269Z,18.38
2022-09-12T09:31:10.332Z,18.43
2022-09-12T09:32:10.252Z,18.54
2022-09-12T09:33:10.214Z,18.49
2022-09-12T09:34:10.207Z,18.57
2022-09-12T09:35:10.184Z,18.63
2022-09-12T09:36:10.201Z,18.66
2022-09-12T09:37:10.164Z,18.70
2022-09-12T09:38:10.169Z,18.70
2022-09-12T09:39:10.148Z,18.75
2022-09-12T09:40:10.257Z,18.83
2022-09-12T09:41:10.133Z,18.78
2022-09-12T09:42:10.149Z,18.75
2022-09-12T09:43:10.095Z,18.85
2022-09-12T09:44:10.150Z,18.76
2022-09-12T09:45:10.079Z,18.86
2022-09-12T09:46:10.161Z,18.85
2022-09-12T09:47:10.056Z,18.91
2022-09-12T09:48:10.048Z,19.01
2022-09-12T09:49:10.037Z,18.96
2022-09-12T09:50:10.022Z,19.04
2022-09-12T09:51:10.022Z,19.05
2022-09-12T09:52:10.016Z,19.12
2022-09-12T09:53:09.984Z,19.05
2022-09-12T09:54:09.974Z,19.16
2022-09-12T09:55:09.964Z,19.22
2022-09-12T09:56:09.998Z,19.24
2022-09-12T09:57:09.950Z,19.24
2022-09-12T09:58:09.932Z,19.34
2022-09-12T09:59:09.938Z,19.32
2022-09-12T10:00:09.930Z,19.37
2022-09-12T10:01:09.987Z,19.39
2022-09-12T10:02:09.920Z,19.44
2022-09-12T10:03:13.462Z,19.45
2022-09-12T10:04:09.871Z,19.42
2022-09-12T10:05:09.862Z,19.50
2022-09-12T10:06:09.862Z,19.54
2022-09-12T10:07:09.842Z,19.60
2022-09-12T10:08:09.824Z,19.63
2022-09-12T10:09:09.813Z,19.60
2022-09-12T10:10:09.800Z,19.62
2022-09-12T10:11:09.818Z,19.77
2022-09-12T10:12:09.795Z,19.78
2022-09-12T10:13:09.777Z,19.74
2022-09-12T10:14:09.763Z,19.82
2022-09-12T10:15:09.750Z,19.82
2022-09-12T10:16:09.830Z,19.92
2022-09-12T10:17:09.721Z,20.02
2022-09-12T10:18:09.709Z,19.99
2022-09-12T10:19:09.707Z,20.09
2022-09-12T10:20:21.020Z,20.19
2022-09-12T10:21:10.708Z,20.19
2022-09-12T10:22:09.669Z,20.17
2022-09-12T10:23:09.658Z,20.34
2022-09-12T10:24:09.643Z,20.36
2022-09-12T10:25:09.639Z,20.27
2022-09-12T10:26:09.623Z,20.37
2022-09-12T10:27:09.631Z,20.37
2022-09-12T10:28:09.622Z,20.48
2022-09-12T10:29:09.586Z,20.50
2022-09-12T10:30:09.581Z,20.63
2022-09-12T10:31:09.641Z,20.61
2022-09-12T10:32:09.583Z,20.67
2022-09-12T10:33:09.551Z,20.79
2022-09-12T10:34:09.549Z,20.79
2022-09-12T10:35:09.541Z,20.83
2022-09-12T10:36:09.516Z,20.82
2022-09-12T10:37:09.531Z,20.92
2022-09-12T10:38:09.494Z,20.98
2022-09-12T10:39:09.514Z,20.98
2022-09-12T10:40:09.550Z,21.03
2022-09-12T10:41:09.461Z,21.10
2022-09-12T10:42:09.463Z,21.19
2022-09-12T10:43:09.448Z,21.26
2022-09-12T10:44:09.455Z,21.37
2022-09-12T10:45:09.418Z,21.34
2022-09-12T10:46:09.458Z,21.41
2022-09-12T10:47:09.411Z,21.44
2022-09-12T10:48:09.387Z,21.51
2022-09-12T10:49:09.382Z,21.62
2022-09-12T10:50:09.374Z,21.84
2022-09-12T10:51:09.352Z,21.97
2022-09-12T10:52:09.359Z,22.18
2022-09-12T10:53:09.344Z,22.40
2022-09-12T10:54:09.316Z,22.64
2022-09-12T10:55:09.309Z,22.66
2022-09-12T10:56:09.299Z,22.80
2022-09-12T10:57:09.305Z,22.92
2022-09-12T10:58:09.294Z,23.10
2022-09-12T10:59:09.255Z,23.13
2022-09-12T11:00:09.276Z,23.23
2022-09-12T11:01:09.307Z,23.18
2022-09-12T11:02:09.397Z,23.25
2022-09-12T11:03:09.223Z,23.37
2022-09-12T11:04:09.234Z,23.23
2022-09-12T11:05:09.191Z,23.28
2022-09-12T11:06:09.200Z,23.33
2022-09-12T11:07:09.194Z,23.39
2022-09-12T11:08:09.172Z,23.42
2022-09-12T11:09:09.172Z,23.48
2022-09-12T11:10:09.148Z,23.51
2022-09-12T11:11:09.130Z,23.59
2022-09-12T11:12:09.130Z,23.63
2022-09-12T11:13:09.110Z,23.63
2022-09-12T11:14:09.099Z,23.70
2022-09-12T11:15:09.092Z,23.69
2022-09-12T11:16:09.161Z,23.78
2022-09-12T11:17:13.257Z,23.81
2022-09-12T11:18:09.061Z,23.89
2022-09-12T11:19:09.044Z,23.92
2022-09-12T11:20:09.039Z,23.88
2022-09-12T11:21:09.028Z,23.96
2022-09-12T11:22:09.038Z,24.06
2022-09-12T11:23:09.007Z,24.03
2022-09-12T11:24:08.992Z,24.22
2022-09-12T11:25:08.990Z,24.16
2022-09-12T11:26:08.973Z,24.19
2022-09-12T11:27:08.969Z,24.28
2022-09-12T11:28:08.943Z,24.33
2022-09-12T11:29:08.940Z,24.40
2022-09-12T11:30:08.935Z,24.40
2022-09-12T11:31:08.945Z,24.36
2022-09-12T11:32:08.937Z,24.53
2022-09-12T11:33:08.899Z,24.48
2022-09-12T11:34:08.880Z,24.60
2022-09-12T11:35:08.874Z,24.62
2022-09-12T11:36:08.862Z,24.60
2022-09-12T11:37:11.393Z,24.58
2022-09-12T11:38:08.841Z,24.66
2022-09-12T11:39:08.832Z,24.70
2022-09-12T11:40:08.890Z,24.74
2022-09-12T11:41:08.805Z,24.71
2022-09-12T11:42:08.813Z,24.75
2022-09-12T11:43:08.778Z,24.71
2022-09-12T11:44:08.776Z,24.78
2022-09-12T11:45:08.764Z,24.89
2022-09-12T11:46:08.818Z,24.94
2022-09-12T11:47:08.754Z,25.03
2022-09-12T11:48:08.756Z,25.08
2022-09-12T11:49:08.716Z,25.22
2022-09-12T11:50:08.708Z,25.18
2022-09-12T11:51:08.702Z,25.41
2022-09-12T11:52:08.726Z,25.43
2022-09-12T11:53:08.675Z,25.56
2022-09-12T11:54:08.669Z,25.75
2022-09-12T11:55:08.662Z,25.88
2022-09-12T11:56:08.647Z,26.05
2022-09-12T11:57:08.670Z,26.21
2022-09-12T11:58:08.623Z,26.16
2022-09-12T11:59:08.611Z,26.15
2022-09-12T12:00:08.604Z,26.07
2022-09-12T12:01:08.589Z,26.10
2022-09-12T12:02:08.614Z,25.96
2022-09-12T12:03:08.668Z,26.07
2022-09-12T12:04:08.581Z,26.10
2022-09-12T12:05:08.548Z,26.12
2022-09-12T12:06:08.555Z,26.19
2022-09-12T12:07:08.575Z,26.11
2022-09-12T12:08:08.517Z,26.15
2022-09-12T12:09:08.500Z,26.23
2022-09-12T12:10:08.506Z,26.26
2022-09-12T12:11:08.483Z,26.33
2022-09-12T12:12:08.520Z,26.48
2022-09-12T12:13:13.300Z,26.53
2022-09-12T12:14:09.447Z,26.51
2022-09-12T12:15:08.432Z,26.61
2022-09-12T12:16:08.523Z,26.79
2022-09-12T12:17:08.429Z,26.76
2022-09-12T12:18:08.412Z,26.79
2022-09-12T12:19:10.770Z,26.88
2022-09-12T12:20:08.916Z,27.00
2022-09-12T12:21:08.369Z,27.03
2022-09-12T12:22:08.386Z,27.12
2022-09-12T12:23:08.353Z,27.15
2022-09-12T12:24:08.344Z,27.20
2022-09-12T12:25:08.328Z,27.27
2022-09-12T12:26:08.325Z,27.35
2022-09-12T12:27:08.319Z,27.52
2022-09-12T12:28:08.298Z,27.83
2022-09-12T12:29:08.290Z,27.82
2022-09-12T12:30:08.372Z,27.79
2022-09-12T12:31:08.367Z,27.75
2022-09-12T12:32:08.274Z,27.85
2022-09-12T12:33:08.246Z,27.76
2022-09-12T12:34:08.235Z,27.76
2022-09-12T12:35:08.223Z,27.83
2022-09-12T12:36:08.237Z,27.94
2022-09-12T12:37:08.218Z,28.05
2022-09-12T12:38:08.195Z,28.13
2022-09-12T12:39:08.182Z,28.20
2022-09-12T12:40:08.292Z,28.24
2022-09-12T12:41:08.167Z,28.24
2022-09-12T12:42:08.162Z,28.25
2022-09-12T12:43:08.154Z,28.30
2022-09-12T12:44:08.137Z,28.17
2022-09-12T12:45:08.121Z,28.25
2022-09-12T12:46:08.206Z,28.17
2022-09-12T12:47:08.112Z,28.16
2022-09-12T12:48:08.394Z,28.19
2022-09-12T12:49:08.077Z,28.17
2022-09-12T12:50:08.117Z,28.09
2022-09-12T12:51:08.053Z,28.01
2022-09-12T12:52:08.082Z,28.06
2022-09-12T12:53:08.030Z,28.05